Terminal Aerodrome Forecast
Issued by NWS

Home | Current Version | Previous Version | Text Only | Print | Product List | Glossary On
Versions: 1 2 3 4 5 6 7 8 9 10 11 12 13 14 15 16 17 18 19 20 21 22 23 24 25 26 27
000
FTUS45 KGJT 301733
TAFDRO
TAF
KDRO 301733Z 3018/3118 00000KT P6SM FEW080 SCT200
     FM302000 28010G20KT P6SM SCT090 BKN150
     FM310300 03005KT P6SM SCT110 SCT200
     FM311200 VRB03KT P6SM SKC=

USA.gov is the U.S. government's official web portal to all federal, state and local government web resources and services.